Time;durP1;ratioP1;P1;durP2;ratioP2;P2;SDS_P1;SDS_P2;PMS_P1;PMS_P2;Temp;Humidity;BMP_temperature;BMP_pressure;BME280_temperature;BME280_humidity;BME280_pressure;Samples;Min_cycle;Max_cycle;Signal;HPM_P1;HPM_P2
2023/06/16 00:00:43;;;;;;;;;;;20.70;56.60;;;;;;6093394;23;20263;-95
2023/06/16 00:06:12;;;;;;;;;;;19.90;56.30;;;;;;6095574;23;19909;-95
2023/06/16 00:08:44;;;;;;;;;;;19.90;56.30;;;;;;6094285;23;19912;-95
2023/06/16 00:11:17;;;;;;;;;;;19.90;56.40;;;;;;6094132;23;19935;-95
2023/06/16 00:13:52;;;;;;;;;;;19.90;56.40;;;;;;6095729;23;19988;-95
2023/06/16 00:16:27;;;;;;;;;;;19.90;56.30;;;;;;6097035;23;19912;-94
2023/06/16 00:18:59;;;;;;;;;;;19.80;56.30;;;;;;6096471;23;19905;-95
2023/06/16 00:21:29;;;;;;;;;;;19.80;56.30;;;;;;6095218;23;19937;-94
2023/06/16 00:23:56;;;;;;;;;;;19.80;56.30;;;;;;6094698;23;19996;-95
2023/06/16 00:26:33;;;;;;;;;;;19.80;56.30;;;;;;6094618;23;19909;-94
2023/06/16 00:28:59;;;;;;;;;;;19.80;56.20;;;;;;6094176;23;19905;-95
2023/06/16 00:31:31;;;;;;;;;;;19.80;56.30;;;;;;6093484;23;19905;-94
2023/06/16 00:34:00;;;;;;;;;;;19.80;56.20;;;;;;6094265;23;19918;-95
2023/06/16 00:36:26;;;;;;;;;;;19.90;56.30;;;;;;6094181;23;19905;-95
2023/06/16 00:38:52;;;;;;;;;;;19.80;56.30;;;;;;6093092;23;19924;-94
2023/06/16 00:41:24;;;;;;;;;;;19.80;56.30;;;;;;6093380;23;19905;-95
2023/06/16 00:43:52;;;;;;;;;;;19.80;56.30;;;;;;6093287;23;19912;-94
2023/06/16 00:49:24;;;;;;;;;;;19.80;56.30;;;;;;6094744;23;19976;-95
2023/06/16 00:51:50;;;;;;;;;;;19.80;56.30;;;;;;6071745;23;19912;-95
2023/06/16 00:57:26;;;;;;;;;;;19.80;56.20;;;;;;6009301;23;19910;-95
2023/06/16 00:59:54;;;;;;;;;;;20.00;56.40;;;;;;5984726;23;19933;-94
2023/06/16 01:02:44;;;;;;;;;;;19.70;56.10;;;;;;5985322;23;19906;-94
2023/06/16 01:08:12;;;;;;;;;;;19.70;56.20;;;;;;5924874;24;20254;-95
2023/06/16 01:14:08;;;;;;;;;;;19.70;56.40;;;;;;5898131;24;19977;-94
2023/06/16 01:16:46;;;;;;;;;;;19.70;56.30;;;;;;5897823;24;19982;-94
2023/06/16 01:19:22;;;;;;;;;;;19.70;56.20;;;;;;5898209;24;19916;-94
2023/06/16 01:21:54;;;;;;;;;;;19.70;56.20;;;;;;5897839;24;19911;-95
2023/06/16 01:24:32;;;;;;;;;;;20.00;56.40;;;;;;5896568;24;20234;-94
2023/06/16 01:27:01;;;;;;;;;;;19.70;56.30;;;;;;5897164;24;19908;-95
2023/06/16 01:29:28;;;;;;;;;;;19.70;56.30;;;;;;5896782;24;19935;-95
2023/06/16 01:32:03;;;;;;;;;;;19.70;56.30;;;;;;5896819;24;19915;-94
2023/06/16 01:34:33;;;;;;;;;;;19.70;56.20;;;;;;5914719;24;20371;-94
2023/06/16 01:37:05;;;;;;;;;;;19.60;56.20;;;;;;5902214;24;19915;-94
2023/06/16 01:39:53;;;;;;;;;;;19.60;56.20;;;;;;5925333;24;19918;-95
2023/06/16 01:42:28;;;;;;;;;;;19.60;56.20;;;;;;5902376;24;19946;-94
2023/06/16 01:44:54;;;;;;;;;;;19.60;56.20;;;;;;5921436;24;19917;-95
2023/06/16 01:47:23;;;;;;;;;;;19.60;56.20;;;;;;5959961;23;19962;-95
2023/06/16 01:50:07;;;;;;;;;;;19.60;56.20;;;;;;6056694;23;19913;-94
2023/06/16 01:52:53;;;;;;;;;;;19.60;56.20;;;;;;6099878;23;19912;-94
2023/06/16 01:55:24;;;;;;;;;;;19.60;56.80;;;;;;5956144;24;19907;-94
2023/06/16 01:57:53;;;;;;;;;;;19.60;56.30;;;;;;5955770;24;19907;-94
2023/06/16 02:00:34;;;;;;;;;;;19.60;56.30;;;;;;5958060;24;19906;-94
2023/06/16 02:03:05;;;;;;;;;;;19.60;56.30;;;;;;5958015;24;19907;-94
2023/06/16 02:05:40;;;;;;;;;;;19.60;56.30;;;;;;5962501;24;19961;-95
2023/06/16 02:08:14;;;;;;;;;;;19.50;56.30;;;;;;5958626;24;19914;-94
2023/06/16 02:10:46;;;;;;;;;;;19.50;56.40;;;;;;5957266;24;19911;-95
2023/06/16 02:13:37;;;;;;;;;;;19.50;56.40;;;;;;5953942;24;19981;-94
2023/06/16 02:16:06;;;;;;;;;;;19.50;56.40;;;;;;5975256;24;19958;-94
2023/06/16 02:18:32;;;;;;;;;;;19.50;56.40;;;;;;5951027;24;19910;-94
2023/06/16 02:21:37;;;;;;;;;;;19.50;56.40;;;;;;5928231;24;20466;-95
2023/06/16 02:24:37;;;;;;;;;;;19.50;56.40;;;;;;5870637;24;19943;-94
2023/06/16 02:27:13;;;;;;;;;;;19.50;56.40;;;;;;5952167;24;19982;-94
2023/06/16 02:29:46;;;;;;;;;;;19.50;56.40;;;;;;5929479;24;19941;-94
2023/06/16 02:32:27;;;;;;;;;;;20.00;56.80;;;;;;5974455;23;19910;-94
2023/06/16 02:34:53;;;;;;;;;;;19.50;56.50;;;;;;6042020;23;19906;-95
2023/06/16 02:37:25;;;;;;;;;;;19.50;56.50;;;;;;6041191;23;19916;-94
2023/06/16 02:39:53;;;;;;;;;;;19.50;56.50;;;;;;5980025;24;19907;-95
2023/06/16 02:42:31;;;;;;;;;;;19.50;56.50;;;;;;6058124;23;19916;-94
2023/06/16 02:44:57;;;;;;;;;;;19.50;56.50;;;;;;6040667;23;19910;-95
2023/06/16 02:47:34;;;;;;;;;;;19.50;56.60;;;;;;6040146;23;20566;-94
2023/06/16 02:50:26;;;;;;;;;;;19.50;56.50;;;;;;6041055;23;19938;-94
2023/06/16 02:52:55;;;;;;;;;;;19.50;56.50;;;;;;6040593;23;19906;-94
2023/06/16 02:55:29;;;;;;;;;;;19.50;56.60;;;;;;6054309;23;19905;-95
2023/06/16 02:57:55;;;;;;;;;;;19.40;56.50;;;;;;6099349;23;19905;-94
2023/06/16 03:00:21;;;;;;;;;;;19.50;56.60;;;;;;6100100;23;20338;-93
2023/06/16 03:02:59;;;;;;;;;;;19.40;56.60;;;;;;6101804;23;19983;-94
2023/06/16 03:05:28;;;;;;;;;;;19.40;56.60;;;;;;6101890;23;19908;-93
2023/06/16 03:08:17;;;;;;;;;;;19.40;56.60;;;;;;6101694;23;19956;-94
2023/06/16 03:10:49;;;;;;;;;;;19.30;56.60;;;;;;6081747;23;19960;-95
2023/06/16 03:13:15;;;;;;;;;;;19.40;56.60;;;;;;6099950;23;19927;-96
2023/06/16 03:16:06;;;;;;;;;;;19.40;56.70;;;;;;6097453;23;20390;-94
2023/06/16 03:18:44;;;;;;;;;;;19.40;56.70;;;;;;6100270;23;19909;-94
2023/06/16 03:21:19;;;;;;;;;;;19.40;56.70;;;;;;6099806;23;19909;-95
2023/06/16 03:26:51;;;;;;;;;;;19.40;56.70;;;;;;6007300;23;20338;-94
2023/06/16 03:29:37;;;;;;;;;;;19.40;56.80;;;;;;5984341;23;19914;-93
2023/06/16 03:32:39;;;;;;;;;;;19.40;56.80;;;;;;5975513;23;20298;-94
2023/06/16 03:37:58;;;;;;;;;;;19.40;56.90;;;;;;6007584;23;20428;-95
2023/06/16 03:40:41;;;;;;;;;;;19.40;56.90;;;;;;5983167;23;19906;-94
2023/06/16 03:43:07;;;;;;;;;;;19.20;56.90;;;;;;5983920;23;19910;-95
2023/06/16 03:45:38;;;;;;;;;;;19.40;57.00;;;;;;5983328;23;19944;-94
2023/06/16 03:48:10;;;;;;;;;;;19.30;56.90;;;;;;5982831;23;19914;-96
2023/06/16 03:50:36;;;;;;;;;;;19.40;57.00;;;;;;5983539;23;20369;-93
2023/06/16 03:53:42;;;;;;;;;;;19.40;57.00;;;;;;5996552;23;19914;-96
2023/06/16 03:56:36;;;;;;;;;;;19.40;57.00;;;;;;6009490;23;20026;-94
2023/06/16 04:01:53;;;;;;;;;;;19.30;57.00;;;;;;6006672;23;19994;-91
2023/06/16 04:04:21;;;;;;;;;;;19.30;57.00;;;;;;6058103;23;19909;-93
2023/06/16 04:07:04;;;;;;;;;;;19.90;57.40;;;;;;6098294;23;19907;-94
2023/06/16 04:15:34;;;;;;;;;;;19.30;57.30;;;;;;6036242;23;20217;-95
2023/06/16 04:18:08;;;;;;;;;;;19.30;57.30;;;;;;6010912;23;19969;-94
2023/06/16 04:20:54;;;;;;;;;;;19.30;57.30;;;;;;6011118;23;19913;-91
2023/06/16 04:23:20;;;;;;;;;;;19.30;57.50;;;;;;6012134;23;19910;-90
2023/06/16 04:25:46;;;;;;;;;;;19.30;57.50;;;;;;6012221;23;19910;-91
2023/06/16 04:28:14;;;;;;;;;;;19.30;57.60;;;;;;6012852;23;19914;-90
2023/06/16 04:30:41;;;;;;;;;;;19.30;57.70;;;;;;6012631;23;19930;-91
2023/06/16 04:33:26;;;;;;;;;;;19.30;57.80;;;;;;6013482;23;20344;-91
2023/06/16 04:35:53;;;;;;;;;;;19.30;58.00;;;;;;6012829;23;19941;-90
2023/06/16 04:38:38;;;;;;;;;;;19.30;58.00;;;;;;6012448;23;19949;-91
2023/06/16 04:41:04;;;;;;;;;;;19.20;57.90;;;;;;6013058;23;19929;-91
2023/06/16 04:43:30;;;;;;;;;;;19.20;58.10;;;;;;6013454;23;19947;-90
2023/06/16 04:46:16;;;;;;;;;;;19.20;58.10;;;;;;6012269;23;19910;-91
2023/06/16 04:48:42;;;;;;;;;;;19.20;58.20;;;;;;6012752;23;19921;-91
2023/06/16 04:51:08;;;;;;;;;;;19.30;58.30;;;;;;6014191;23;19958;-91
2023/06/16 04:53:34;;;;;;;;;;;19.30;58.30;;;;;;6077585;23;19988;-91
2023/06/16 04:56:00;;;;;;;;;;;19.20;58.30;;;;;;6076997;23;19916;-91
2023/06/16 04:58:25;;;;;;;;;;;19.20;58.40;;;;;;6076562;23;19909;-90
2023/06/16 05:00:54;;;;;;;;;;;19.20;58.50;;;;;;6101619;23;19909;-91
2023/06/16 05:03:19;;;;;;;;;;;19.30;58.50;;;;;;6078114;23;19982;-91
2023/06/16 05:05:45;;;;;;;;;;;19.20;58.60;;;;;;6101183;23;20257;-90
2023/06/16 05:08:11;;;;;;;;;;;19.20;58.70;;;;;;6077495;23;19916;-91
2023/06/16 05:10:38;;;;;;;;;;;19.20;58.60;;;;;;6100191;23;19928;-91
2023/06/16 05:13:03;;;;;;;;;;;19.30;58.80;;;;;;6076775;23;20461;-91
2023/06/16 05:15:29;;;;;;;;;;;19.20;59.00;;;;;;6101280;23;19929;-90
2023/06/16 05:18:13;;;;;;;;;;;19.20;59.20;;;;;;6077651;23;19909;-90
2023/06/16 05:20:38;;;;;;;;;;;19.30;59.20;;;;;;6100436;23;19905;-91
2023/06/16 05:23:04;;;;;;;;;;;19.20;59.20;;;;;;6076276;23;19916;-91
2023/06/16 05:25:30;;;;;;;;;;;19.20;59.40;;;;;;6100621;23;19916;-90
2023/06/16 05:27:56;;;;;;;;;;;19.20;59.30;;;;;;6076442;23;19913;-90
2023/06/16 05:30:22;;;;;;;;;;;19.20;59.30;;;;;;6076994;23;19948;-91
2023/06/16 05:32:48;;;;;;;;;;;19.30;59.30;;;;;;6101717;23;19905;-91
2023/06/16 05:35:14;;;;;;;;;;;19.30;59.40;;;;;;6101089;23;19909;-90
2023/06/16 05:37:39;;;;;;;;;;;19.20;59.60;;;;;;6099969;23;19905;-90
2023/06/16 05:40:06;;;;;;;;;;;19.30;59.40;;;;;;6076312;23;19915;-91
2023/06/16 05:42:33;;;;;;;;;;;19.20;59.20;;;;;;6075965;23;19937;-90
2023/06/16 05:44:58;;;;;;;;;;;19.30;59.20;;;;;;6099131;23;19916;-88
2023/06/16 05:47:24;;;;;;;;;;;19.20;59.00;;;;;;6124309;23;19905;-88
2023/06/16 05:49:50;;;;;;;;;;;19.20;59.10;;;;;;6098079;23;19913;-88
2023/06/16 05:52:16;;;;;;;;;;;19.30;59.20;;;;;;6075254;23;19920;-89
2023/06/16 05:55:02;;;;;;;;;;;19.30;59.20;;;;;;6075230;23;19917;-89
2023/06/16 05:57:27;;;;;;;;;;;19.20;59.40;;;;;;6097668;23;19905;-88
2023/06/16 06:00:13;;;;;;;;;;;19.20;59.50;;;;;;6075271;23;19932;-89
2023/06/16 06:02:39;;;;;;;;;;;19.20;59.50;;;;;;6099279;23;19905;-89
2023/06/16 06:05:05;;;;;;;;;;;19.30;59.60;;;;;;6099873;23;19912;-88
2023/06/16 06:07:31;;;;;;;;;;;19.20;59.60;;;;;;6075637;23;19963;-89
2023/06/16 06:09:57;;;;;;;;;;;19.10;59.60;;;;;;6098241;23;19913;-88
2023/06/16 06:12:22;;;;;;;;;;;19.30;59.70;;;;;;6072949;23;19913;-88
2023/06/16 06:14:48;;;;;;;;;;;19.30;59.80;;;;;;6096677;23;19909;-87
2023/06/16 06:17:13;;;;;;;;;;;19.30;59.90;;;;;;6074235;23;19909;-89
2023/06/16 06:19:39;;;;;;;;;;;19.30;60.00;;;;;;6074454;23;19998;-89
2023/06/16 06:22:05;;;;;;;;;;;19.30;60.00;;;;;;6098726;23;19909;-90
2023/06/16 06:24:31;;;;;;;;;;;19.30;60.80;;;;;;6099127;23;19909;-89
2023/06/16 06:26:57;;;;;;;;;;;19.40;60.00;;;;;;6098895;23;20271;-89
2023/06/16 06:29:22;;;;;;;;;;;19.40;60.20;;;;;;6075230;23;19980;-89
2023/06/16 06:31:48;;;;;;;;;;;19.40;60.20;;;;;;6098390;23;19905;-90
2023/06/16 06:34:14;;;;;;;;;;;19.40;60.40;;;;;;6097673;23;19928;-89
2023/06/16 06:36:39;;;;;;;;;;;19.40;60.60;;;;;;6099037;23;20564;-90
2023/06/16 06:39:05;;;;;;;;;;;19.40;60.60;;;;;;6074967;23;19988;-90
2023/06/16 06:41:31;;;;;;;;;;;19.50;60.80;;;;;;6099351;23;19912;-89
2023/06/16 06:43:57;;;;;;;;;;;19.50;60.90;;;;;;6098227;23;19909;-88
2023/06/16 06:46:23;;;;;;;;;;;19.50;60.70;;;;;;6099152;23;19943;-90
2023/06/16 06:48:49;;;;;;;;;;;19.50;60.70;;;;;;6073902;23;20453;-91
2023/06/16 06:51:14;;;;;;;;;;;19.60;60.80;;;;;;6098076;23;19905;-91
2023/06/16 06:53:40;;;;;;;;;;;19.60;60.80;;;;;;6097973;23;19956;-90
2023/06/16 06:56:06;;;;;;;;;;;19.60;60.70;;;;;;6070563;23;19913;-90
2023/06/16 06:58:35;;;;;;;;;;;19.60;60.70;;;;;;6096739;23;19905;-90
2023/06/16 07:01:00;;;;;;;;;;;19.70;60.70;;;;;;6073703;23;19909;-90
2023/06/16 07:03:26;;;;;;;;;;;19.70;60.70;;;;;;6098986;23;20342;-91
2023/06/16 07:05:53;;;;;;;;;;;19.80;60.80;;;;;;6075490;23;19928;-91
2023/06/16 07:08:19;;;;;;;;;;;19.80;60.70;;;;;;6075796;23;19909;-90
2023/06/16 07:10:44;;;;;;;;;;;19.80;60.70;;;;;;6074122;23;19984;-90
2023/06/16 07:13:10;;;;;;;;;;;19.80;60.90;;;;;;6098532;23;19916;-89
2023/06/16 07:15:36;;;;;;;;;;;19.90;60.70;;;;;;6074438;23;19988;-90
2023/06/16 07:18:01;;;;;;;;;;;19.90;60.80;;;;;;6071627;23;19915;-90
2023/06/16 07:20:27;;;;;;;;;;;20.00;60.80;;;;;;6099288;23;19932;-90
2023/06/16 07:22:53;;;;;;;;;;;20.00;61.00;;;;;;6100391;23;20315;-91
2023/06/16 07:25:19;;;;;;;;;;;20.00;61.00;;;;;;6099631;23;20315;-88
2023/06/16 07:27:44;;;;;;;;;;;20.10;61.00;;;;;;6076010;23;19909;-91
2023/06/16 07:30:12;;;;;;;;;;;20.10;61.30;;;;;;6099373;23;20430;-91
2023/06/16 07:32:39;;;;;;;;;;;20.20;61.30;;;;;;6076012;23;19995;-90
2023/06/16 07:35:25;;;;;;;;;;;20.20;61.20;;;;;;6099131;23;19912;-89
2023/06/16 07:37:51;;;;;;;;;;;20.30;61.00;;;;;;6098945;23;19912;-90
2023/06/16 07:40:16;;;;;;;;;;;20.30;61.00;;;;;;6099317;23;19940;-90
2023/06/16 07:42:44;;;;;;;;;;;20.30;60.80;;;;;;6075544;23;19920;-91
2023/06/16 07:45:10;;;;;;;;;;;20.40;60.80;;;;;;6099439;23;19916;-90
2023/06/16 07:47:35;;;;;;;;;;;20.40;60.80;;;;;;6099510;23;19915;-90
2023/06/16 07:50:04;;;;;;;;;;;20.50;60.50;;;;;;6099150;23;19984;-90
2023/06/16 07:52:29;;;;;;;;;;;20.60;60.10;;;;;;6075303;23;19915;-90
2023/06/16 07:54:55;;;;;;;;;;;20.60;59.30;;;;;;6075340;23;19984;-90
2023/06/16 07:57:21;;;;;;;;;;;20.60;59.10;;;;;;6075083;23;19933;-90
2023/06/16 08:00:07;;;;;;;;;;;20.70;58.80;;;;;;6098828;23;19944;-90
2023/06/16 08:02:36;;;;;;;;;;;20.70;58.50;;;;;;6102793;23;19912;-91
2023/06/16 08:05:02;;;;;;;;;;;20.70;58.00;;;;;;6074062;23;19917;-91
2023/06/16 08:07:53;;;;;;;;;;;20.80;56.50;;;;;;6099629;23;19999;-90
2023/06/16 08:10:20;;;;;;;;;;;20.80;56.10;;;;;;6099809;23;19984;-89
2023/06/16 08:12:46;;;;;;;;;;;20.90;55.40;;;;;;6076397;23;19916;-90
2023/06/16 08:15:12;;;;;;;;;;;20.90;54.90;;;;;;6074994;23;19909;-90
2023/06/16 08:17:37;;;;;;;;;;;21.00;54.20;;;;;;6075950;23;19996;-89
2023/06/16 08:20:26;;;;;;;;;;;21.00;53.90;;;;;;6076598;23;19940;-90
2023/06/16 08:23:12;;;;;;;;;;;21.40;53.90;;;;;;6099718;23;19911;-90
2023/06/16 08:25:37;;;;;;;;;;;21.10;53.90;;;;;;6099201;23;19931;-90
2023/06/16 08:28:05;;;;;;;;;;;21.10;52.30;;;;;;6076395;23;20327;-90
2023/06/16 08:30:30;;;;;;;;;;;21.10;52.40;;;;;;6077155;23;19909;-91
2023/06/16 08:32:59;;;;;;;;;;;21.20;51.90;;;;;;6099593;23;20350;-92
2023/06/16 08:35:25;;;;;;;;;;;21.20;51.80;;;;;;6099862;23;19980;-90
2023/06/16 08:38:13;;;;;;;;;;;21.20;51.00;;;;;;6075351;23;19987;-90
2023/06/16 08:40:39;;;;;;;;;;;21.20;51.40;;;;;;6100410;23;19927;-91
2023/06/16 08:43:27;;;;;;;;;;;21.20;51.60;;;;;;6074456;23;20315;-89
2023/06/16 08:45:58;;;;;;;;;;;21.30;51.20;;;;;;6099090;23;19992;-91
2023/06/16 08:48:26;;;;;;;;;;;21.30;50.50;;;;;;6073288;23;19941;-93
2023/06/16 08:50:53;;;;;;;;;;;21.30;50.50;;;;;;6070335;23;19948;-92
2023/06/16 08:53:39;;;;;;;;;;;21.30;50.20;;;;;;6045896;23;19997;-92
2023/06/16 08:56:05;;;;;;;;;;;21.40;49.60;;;;;;6069572;23;19928;-91
2023/06/16 08:58:32;;;;;;;;;;;21.40;48.70;;;;;;6046322;23;19932;-90
2023/06/16 09:00:59;;;;;;;;;;;21.40;49.10;;;;;;6046615;23;20234;-90
2023/06/16 09:03:32;;;;;;;;;;;21.40;49.40;;;;;;6046355;23;19968;-89
2023/06/16 09:05:59;;;;;;;;;;;21.40;49.50;;;;;;6046879;23;19914;-89
2023/06/16 09:08:25;;;;;;;;;;;21.40;48.80;;;;;;6046487;23;19913;-89
2023/06/16 09:10:55;;;;;;;;;;;21.50;49.00;;;;;;6046867;23;20207;-90
2023/06/16 09:13:21;;;;;;;;;;;21.50;49.20;;;;;;6072278;23;19933;-90
2023/06/16 09:16:09;;;;;;;;;;;21.50;49.00;;;;;;6048229;23;19909;-90
2023/06/16 09:18:36;;;;;;;;;;;21.50;49.30;;;;;;6071454;23;19928;-88
2023/06/16 09:21:23;;;;;;;;;;;21.60;49.10;;;;;;6047752;23;19916;-92
2023/06/16 09:24:15;;;;;;;;;;;21.50;49.00;;;;;;6072078;23;19909;-89
2023/06/16 09:26:41;;;;;;;;;;;21.50;48.90;;;;;;6072112;23;19909;-90
2023/06/16 09:29:39;;;;;;;;;;;21.50;49.40;;;;;;6047605;23;19916;-88
2023/06/16 09:32:06;;;;;;;;;;;21.60;49.30;;;;;;6071445;23;19984;-89
2023/06/16 09:34:51;;;;;;;;;;;21.60;49.00;;;;;;6047498;23;19991;-90
2023/06/16 09:37:20;;;;;;;;;;;21.60;49.30;;;;;;6071440;23;19941;-88
2023/06/16 09:39:46;;;;;;;;;;;21.60;49.40;;;;;;6071924;23;19936;-90
2023/06/16 09:42:18;;;;;;;;;;;21.60;49.40;;;;;;6048698;23;19913;-91
2023/06/16 09:44:44;;;;;;;;;;;21.60;49.60;;;;;;6047609;23;20276;-89
2023/06/16 09:47:14;;;;;;;;;;;21.60;48.90;;;;;;6071411;23;19944;-90
2023/06/16 09:49:39;;;;;;;;;;;21.70;49.10;;;;;;6082990;23;19917;-89
2023/06/16 09:52:25;;;;;;;;;;;21.70;48.70;;;;;;6072180;23;19988;-89
2023/06/16 09:55:14;;;;;;;;;;;21.70;48.50;;;;;;6095553;23;19913;-89
2023/06/16 09:58:00;;;;;;;;;;;21.70;48.60;;;;;;6095431;23;20209;-88
2023/06/16 10:00:45;;;;;;;;;;;21.70;47.70;;;;;;6093716;23;19910;-89
2023/06/16 10:03:12;;;;;;;;;;;21.70;48.10;;;;;;6095228;23;19905;-89
2023/06/16 10:05:58;;;;;;;;;;;21.80;48.30;;;;;;6071711;23;19916;-90
2023/06/16 10:08:23;;;;;;;;;;;21.80;48.10;;;;;;6095213;23;19933;-90
2023/06/16 10:10:51;;;;;;;;;;;21.80;47.80;;;;;;6071303;23;19917;-90
2023/06/16 10:13:18;;;;;;;;;;;21.80;48.10;;;;;;6071773;23;19940;-90
2023/06/16 10:15:46;;;;;;;;;;;21.80;48.70;;;;;;6071002;23;19992;-89
2023/06/16 10:18:14;;;;;;;;;;;21.80;47.60;;;;;;6095518;23;19948;-89
2023/06/16 10:20:40;;;;;;;;;;;21.80;47.80;;;;;;6071431;23;20291;-89
2023/06/16 10:23:25;;;;;;;;;;;21.80;48.00;;;;;;6071009;23;19913;-89
2023/06/16 10:26:11;;;;;;;;;;;21.80;47.70;;;;;;6095430;23;19915;-90
2023/06/16 10:28:37;;;;;;;;;;;21.80;48.00;;;;;;6095156;23;19936;-89
2023/06/16 10:31:04;;;;;;;;;;;21.80;47.30;;;;;;6071350;23;19917;-88
2023/06/16 10:33:49;;;;;;;;;;;21.80;47.70;;;;;;6071662;23;19916;-91
2023/06/16 10:36:19;;;;;;;;;;;21.80;48.20;;;;;;6071166;23;19913;-90
2023/06/16 10:38:53;;;;;;;;;;;21.80;47.90;;;;;;6072098;23;20307;-87
2023/06/16 10:41:39;;;;;;;;;;;21.80;47.30;;;;;;6071394;23;19910;-88
2023/06/16 10:44:23;;;;;;;;;;;21.70;47.30;;;;;;6095120;23;19913;-89
2023/06/16 10:47:04;;;;;;;;;;;21.70;47.40;;;;;;6094679;23;19930;-88
2023/06/16 10:49:30;;;;;;;;;;;21.70;47.20;;;;;;6095332;23;19913;-89
2023/06/16 10:51:57;;;;;;;;;;;21.70;47.10;;;;;;6070843;23;19913;-90
2023/06/16 10:54:32;;;;;;;;;;;21.70;47.40;;;;;;6071514;23;19913;-90
2023/06/16 10:57:05;;;;;;;;;;;21.60;47.40;;;;;;6094911;23;19913;-89
2023/06/16 10:59:50;;;;;;;;;;;21.60;47.30;;;;;;6094566;23;20227;-91
2023/06/16 11:02:23;;;;;;;;;;;21.60;47.10;;;;;;6094659;23;19905;-91
2023/06/16 11:05:13;;;;;;;;;;;21.60;47.20;;;;;;6094969;23;19932;-92
2023/06/16 11:07:48;;;;;;;;;;;21.60;47.20;;;;;;6092284;23;19912;-89
2023/06/16 11:10:33;;;;;;;;;;;21.60;46.60;;;;;;6070671;23;19913;-88
2023/06/16 11:12:59;;;;;;;;;;;21.60;46.80;;;;;;6094196;23;19906;-89
2023/06/16 11:15:25;;;;;;;;;;;21.60;47.30;;;;;;6070170;23;19916;-88
2023/06/16 11:17:53;;;;;;;;;;;21.50;46.50;;;;;;6095404;23;19905;-94
2023/06/16 11:20:20;;;;;;;;;;;21.50;46.70;;;;;;6070588;23;20307;-87
2023/06/16 11:22:45;;;;;;;;;;;21.50;46.30;;;;;;6070620;23;19909;-88
2023/06/16 11:25:31;;;;;;;;;;;21.50;46.50;;;;;;6069980;23;20279;-89
2023/06/16 11:27:57;;;;;;;;;;;21.50;46.60;;;;;;6094017;23;19905;-87
2023/06/16 11:30:23;;;;;;;;;;;21.50;46.60;;;;;;6070704;23;19920;-87
2023/06/16 11:32:49;;;;;;;;;;;21.40;46.70;;;;;;6093913;23;19905;-90
2023/06/16 11:35:15;;;;;;;;;;;21.40;46.80;;;;;;6070176;23;19909;-88
2023/06/16 11:38:01;;;;;;;;;;;21.40;46.80;;;;;;6094016;23;19976;-87
2023/06/16 11:40:28;;;;;;;;;;;21.40;47.20;;;;;;6092291;23;19912;-90
2023/06/16 11:43:18;;;;;;;;;;;21.40;47.00;;;;;;6070569;23;19948;-89
2023/06/16 11:46:03;;;;;;;;;;;21.40;47.40;;;;;;6094902;23;19956;-87
2023/06/16 11:48:29;;;;;;;;;;;21.40;46.90;;;;;;6095784;23;19909;-89
2023/06/16 11:50:54;;;;;;;;;;;21.40;46.90;;;;;;6070011;23;20327;-88
2023/06/16 11:53:20;;;;;;;;;;;21.40;47.20;;;;;;6070302;23;19996;-87
2023/06/16 11:55:52;;;;;;;;;;;21.40;47.70;;;;;;6070336;23;19905;-89
2023/06/16 11:58:18;;;;;;;;;;;21.50;48.00;;;;;;6046493;23;19910;-88
2023/06/16 12:01:04;;;;;;;;;;;21.50;48.70;;;;;;6070624;23;20742;-90
2023/06/16 12:03:33;;;;;;;;;;;21.50;47.80;;;;;;6070603;23;19912;-90
2023/06/16 12:05:59;;;;;;;;;;;21.40;47.50;;;;;;6045767;23;20427;-91
2023/06/16 12:09:02;;;;;;;;;;;21.40;47.20;;;;;;6046819;23;19916;-89
2023/06/16 12:11:48;;;;;;;;;;;21.20;46.40;;;;;;6069970;23;19912;-89
2023/06/16 12:14:43;;;;;;;;;;;21.40;46.40;;;;;;6094874;23;19980;-89
2023/06/16 12:17:29;;;;;;;;;;;21.40;46.20;;;;;;6069564;23;20315;-88
2023/06/16 12:19:55;;;;;;;;;;;21.40;46.40;;;;;;6068923;23;19992;-91
2023/06/16 12:22:40;;;;;;;;;;;21.40;47.10;;;;;;6047665;23;19909;-91
2023/06/16 12:25:16;;;;;;;;;;;21.30;46.10;;;;;;6071181;23;19915;-88
2023/06/16 12:28:03;;;;;;;;;;;21.30;46.20;;;;;;6045664;23;19913;-90
2023/06/16 12:30:32;;;;;;;;;;;21.30;46.00;;;;;;6068612;23;20295;-88
2023/06/16 12:33:18;;;;;;;;;;;21.30;46.20;;;;;;6044591;23;19948;-87
2023/06/16 12:35:44;;;;;;;;;;;21.30;46.80;;;;;;6067309;23;19905;-88
2023/06/16 12:38:11;;;;;;;;;;;21.40;46.60;;;;;;6044892;23;19909;-90
2023/06/16 12:40:56;;;;;;;;;;;21.40;47.00;;;;;;6045326;23;19992;-88
2023/06/16 12:43:42;;;;;;;;;;;21.30;46.70;;;;;;6069699;23;20215;-88
2023/06/16 12:46:07;;;;;;;;;;;21.30;47.30;;;;;;6070772;23;19909;-89
2023/06/16 12:48:33;;;;;;;;;;;21.30;47.10;;;;;;6071990;23;19913;-88
2023/06/16 12:50:59;;;;;;;;;;;21.30;47.10;;;;;;6047643;23;20332;-88
2023/06/16 12:53:25;;;;;;;;;;;21.40;47.50;;;;;;6072117;23;19952;-90
2023/06/16 12:56:10;;;;;;;;;;;21.40;46.90;;;;;;6048845;23;19909;-88
2023/06/16 12:58:39;;;;;;;;;;;21.30;46.60;;;;;;6070852;23;19905;-90
2023/06/16 13:01:05;;;;;;;;;;;21.30;46.60;;;;;;6071954;23;20223;-89
2023/06/16 13:03:31;;;;;;;;;;;21.30;46.10;;;;;;6072308;23;19909;-89
2023/06/16 13:05:57;;;;;;;;;;;21.30;46.20;;;;;;6048277;23;19924;-88
2023/06/16 13:08:22;;;;;;;;;;;21.30;45.90;;;;;;6072573;23;19988;-91
2023/06/16 13:10:48;;;;;;;;;;;21.30;46.20;;;;;;6048105;23;19960;-88
2023/06/16 13:13:14;;;;;;;;;;;21.30;46.50;;;;;;6048407;23;19961;-91
2023/06/16 13:15:40;;;;;;;;;;;21.30;46.60;;;;;;6048180;23;20257;-89
2023/06/16 13:18:07;;;;;;;;;;;21.20;46.10;;;;;;6048204;23;19910;-87
2023/06/16 13:20:33;;;;;;;;;;;21.20;46.20;;;;;;6048084;23;20324;-88
2023/06/16 13:23:21;;;;;;;;;;;21.30;46.40;;;;;;6070949;23;19916;-87
2023/06/16 13:25:47;;;;;;;;;;;21.20;46.60;;;;;;6070749;23;19909;-88
2023/06/16 13:28:13;;;;;;;;;;;21.30;47.80;;;;;;6047851;23;20335;-88
2023/06/16 13:30:39;;;;;;;;;;;21.30;47.60;;;;;;6071566;23;19956;-88
2023/06/16 13:33:04;;;;;;;;;;;21.30;47.60;;;;;;6071543;23;20334;-88
2023/06/16 13:35:30;;;;;;;;;;;21.30;47.40;;;;;;6047918;23;19948;-88
2023/06/16 13:37:56;;;;;;;;;;;21.20;47.60;;;;;;6071618;23;19906;-88
2023/06/16 13:40:21;;;;;;;;;;;21.30;47.90;;;;;;6047436;23;20316;-90
2023/06/16 13:42:47;;;;;;;;;;;21.30;48.10;;;;;;6048237;23;19987;-89
2023/06/16 13:45:33;;;;;;;;;;;21.20;48.20;;;;;;6071453;23;19913;-87
2023/06/16 13:47:58;;;;;;;;;;;21.30;48.50;;;;;;6071596;23;19980;-88
2023/06/16 13:50:24;;;;;;;;;;;21.30;48.40;;;;;;6072622;23;20385;-89
2023/06/16 13:52:49;;;;;;;;;;;21.30;48.20;;;;;;6076429;23;20338;-88
2023/06/16 13:55:15;;;;;;;;;;;21.30;48.40;;;;;;6125746;23;19912;-92
2023/06/16 13:57:41;;;;;;;;;;;21.30;48.70;;;;;;6075851;23;19916;-90
2023/06/16 14:00:27;;;;;;;;;;;21.30;48.10;;;;;;6075865;23;19916;-88
2023/06/16 14:02:53;;;;;;;;;;;21.30;48.30;;;;;;6100060;23;19905;-87
2023/06/16 14:05:19;;;;;;;;;;;21.30;47.90;;;;;;6076316;23;19913;-87
2023/06/16 14:07:45;;;;;;;;;;;21.20;47.50;;;;;;6099685;23;19948;-87
2023/06/16 14:10:11;;;;;;;;;;;21.20;47.10;;;;;;6075465;23;19913;-88
2023/06/16 14:12:36;;;;;;;;;;;21.30;47.30;;;;;;6099532;23;19948;-88
2023/06/16 14:15:22;;;;;;;;;;;21.30;47.50;;;;;;6099580;23;20243;-93
2023/06/16 14:17:47;;;;;;;;;;;21.30;47.40;;;;;;6099642;23;19927;-89
2023/06/16 14:20:13;;;;;;;;;;;21.20;47.00;;;;;;6099555;23;20304;-89
2023/06/16 14:22:59;;;;;;;;;;;21.20;47.00;;;;;;6100353;23;19956;-88
2023/06/16 14:25:25;;;;;;;;;;;21.30;46.90;;;;;;6099848;23;20319;-88
2023/06/16 14:27:50;;;;;;;;;;;21.20;46.70;;;;;;6099491;23;19979;-88
2023/06/16 14:30:16;;;;;;;;;;;21.30;46.90;;;;;;6099456;23;19955;-90
2023/06/16 14:32:42;;;;;;;;;;;21.30;47.60;;;;;;6075621;23;19909;-89
2023/06/16 14:35:27;;;;;;;;;;;21.30;47.50;;;;;;6075486;23;19909;-89
2023/06/16 14:37:53;;;;;;;;;;;21.30;47.30;;;;;;6099076;23;19909;-88
2023/06/16 14:40:18;;;;;;;;;;;21.30;47.50;;;;;;6074981;23;19939;-89
2023/06/16 14:42:44;;;;;;;;;;;21.30;47.30;;;;;;6125367;23;19979;-87
2023/06/16 14:45:10;;;;;;;;;;;21.30;47.40;;;;;;6075880;23;19927;-89
2023/06/16 14:47:44;;;;;;;;;;;21.30;46.70;;;;;;6076206;23;20342;-89
2023/06/16 14:50:09;;;;;;;;;;;21.30;46.60;;;;;;6075429;23;19944;-88
2023/06/16 14:52:35;;;;;;;;;;;21.30;46.90;;;;;;6100347;23;19932;-89
2023/06/16 14:55:01;;;;;;;;;;;21.30;46.50;;;;;;6075863;23;20212;-90
2023/06/16 14:57:46;;;;;;;;;;;21.30;46.70;;;;;;6075998;23;19909;-88
2023/06/16 15:00:32;;;;;;;;;;;21.30;47.40;;;;;;6098990;23;19936;-90
2023/06/16 15:02:57;;;;;;;;;;;21.30;47.40;;;;;;6099336;23;19932;-89
2023/06/16 15:05:43;;;;;;;;;;;21.30;47.00;;;;;;6075972;23;19917;-91
2023/06/16 15:08:08;;;;;;;;;;;21.30;47.10;;;;;;6098929;23;19913;-87
2023/06/16 15:10:34;;;;;;;;;;;21.20;46.60;;;;;;6099562;23;19905;-90
2023/06/16 15:13:00;;;;;;;;;;;21.30;46.50;;;;;;6098456;23;19916;-88